sensor_id;sensor_type;location;lat;lon;timestamp;pressure;altitude;pressure_sealevel;temperature;humidity
64080;BME280;51042;49.696;10.808;2023-08-17T00:01:39;98582.50;;;21.99;100.00
64080;BME280;51042;49.696;10.808;2023-08-17T00:04:04;98586.81;;;21.89;100.00
64080;BME280;51042;49.696;10.808;2023-08-17T00:06:30;98586.03;;;21.83;100.00
64080;BME280;51042;49.696;10.808;2023-08-17T00:08:55;98574.88;;;21.83;100.00
64080;BME280;51042;49.696;10.808;2023-08-17T00:11:20;98592.41;;;21.84;100.00
64080;BME280;51042;49.696;10.808;2023-08-17T00:13:46;98591.38;;;21.81;100.00
64080;BME280;51042;49.696;10.808;2023-08-17T00:16:11;98598.47;;;21.82;100.00
64080;BME280;51042;49.696;10.808;2023-08-17T00:18:36;98602.81;;;21.83;100.00
64080;BME280;51042;49.696;10.808;2023-08-17T00:21:01;98596.94;;;21.81;100.00
64080;BME280;51042;49.696;10.808;2023-08-17T00:23:28;98595.19;;;21.78;100.00
64080;BME280;51042;49.696;10.808;2023-08-17T00:25:53;98592.41;;;21.78;100.00
64080;BME280;51042;49.696;10.808;2023-08-17T00:28:19;98597.22;;;21.78;100.00
64080;BME280;51042;49.696;10.808;2023-08-17T00:30:44;98596.94;;;21.76;100.00
64080;BME280;51042;49.696;10.808;2023-08-17T00:33:09;98601.28;;;21.77;100.00
64080;BME280;51042;49.696;10.808;2023-08-17T00:35:35;98598.25;;;21.75;100.00
64080;BME280;51042;49.696;10.808;2023-08-17T00:38:00;98591.13;;;21.74;100.00
64080;BME280;51042;49.696;10.808;2023-08-17T00:40:25;98594.69;;;21.69;100.00
64080;BME280;51042;49.696;10.808;2023-08-17T00:42:50;98589.31;;;21.65;100.00
64080;BME280;51042;49.696;10.808;2023-08-17T00:45:17;98579.69;;;21.66;100.00
64080;BME280;51042;49.696;10.808;2023-08-17T00:47:42;98571.56;;;21.63;100.00
64080;BME280;51042;49.696;10.808;2023-08-17T00:50:07;98585.75;;;21.59;100.00
64080;BME280;51042;49.696;10.808;2023-08-17T00:52:32;98575.06;;;21.52;100.00
64080;BME280;51042;49.696;10.808;2023-08-17T00:54:58;98572.03;;;21.44;100.00
64080;BME280;51042;49.696;10.808;2023-08-17T00:57:25;98571.25;;;21.38;100.00
64080;BME280;51042;49.696;10.808;2023-08-17T00:59:51;98575.53;;;21.34;100.00
64080;BME280;51042;49.696;10.808;2023-08-17T01:02:16;98580.38;;;21.33;100.00
64080;BME280;51042;49.696;10.808;2023-08-17T01:04:42;98581.13;;;21.34;100.00
64080;BME280;51042;49.696;10.808;2023-08-17T01:07:07;98586.00;;;21.39;100.00
64080;BME280;51042;49.696;10.808;2023-08-17T01:09:32;98592.84;;;21.38;100.00
64080;BME280;51042;49.696;10.808;2023-08-17T01:12:13;98589.50;;;21.39;100.00
64080;BME280;51042;49.696;10.808;2023-08-17T01:17:15;98587.50;;;21.45;100.00
64080;BME280;51042;49.696;10.808;2023-08-17T01:19:42;98583.22;;;21.44;100.00
64080;BME280;51042;49.696;10.808;2023-08-17T01:22:10;98575.81;;;21.41;100.00
64080;BME280;51042;49.696;10.808;2023-08-17T01:24:35;98580.13;;;21.37;100.00
64080;BME280;51042;49.696;10.808;2023-08-17T01:27:01;98578.09;;;21.32;100.00
64080;BME280;51042;49.696;10.808;2023-08-17T01:29:26;98582.66;;;21.29;100.00
64080;BME280;51042;49.696;10.808;2023-08-17T01:34:20;98577.31;;;21.20;100.00
64080;BME280;51042;49.696;10.808;2023-08-17T01:36:57;98573.19;;;21.15;100.00
64080;BME280;51042;49.696;10.808;2023-08-17T01:39:24;98573.16;;;21.10;100.00
64080;BME280;51042;49.696;10.808;2023-08-17T01:41:51;98566.56;;;21.07;100.00
64080;BME280;51042;49.696;10.808;2023-08-17T01:44:17;98572.38;;;21.04;100.00
64080;BME280;51042;49.696;10.808;2023-08-17T01:46:43;98569.31;;;20.96;100.00
64080;BME280;51042;49.696;10.808;2023-08-17T01:49:08;98556.84;;;20.86;100.00
64080;BME280;51042;49.696;10.808;2023-08-17T01:51:33;98558.59;;;20.78;100.00
64080;BME280;51042;49.696;10.808;2023-08-17T01:53:58;98556.28;;;20.71;100.00
64080;BME280;51042;49.696;10.808;2023-08-17T01:56:23;98547.63;;;20.69;100.00
64080;BME280;51042;49.696;10.808;2023-08-17T01:58:48;98557.78;;;20.66;100.00
64080;BME280;51042;49.696;10.808;2023-08-17T02:01:14;98557.50;;;20.64;100.00
64080;BME280;51042;49.696;10.808;2023-08-17T02:03:39;98559.22;;;20.56;100.00
64080;BME280;51042;49.696;10.808;2023-08-17T02:06:04;98557.66;;;20.50;100.00
64080;BME280;51042;49.696;10.808;2023-08-17T02:08:29;98548.25;;;20.42;100.00
64080;BME280;51042;49.696;10.808;2023-08-17T02:10:55;98536.59;;;20.38;100.00
64080;BME280;51042;49.696;10.808;2023-08-17T02:13:20;98534.72;;;20.29;100.00
64080;BME280;51042;49.696;10.808;2023-08-17T02:15:48;98526.81;;;20.22;100.00
64080;BME280;51042;49.696;10.808;2023-08-17T02:18:13;98527.09;;;20.24;100.00
64080;BME280;51042;49.696;10.808;2023-08-17T02:20:39;98540.25;;;20.23;100.00
64080;BME280;51042;49.696;10.808;2023-08-17T02:23:04;98536.22;;;20.24;100.00
64080;BME280;51042;49.696;10.808;2023-08-17T02:25:29;98531.63;;;20.21;100.00
64080;BME280;51042;49.696;10.808;2023-08-17T02:28:00;98529.59;;;20.22;100.00
64080;BME280;51042;49.696;10.808;2023-08-17T02:30:26;98521.22;;;20.16;100.00
64080;BME280;51042;49.696;10.808;2023-08-17T02:32:51;98520.94;;;20.14;100.00
64080;BME280;51042;49.696;10.808;2023-08-17T02:35:16;98519.69;;;20.15;100.00
64080;BME280;51042;49.696;10.808;2023-08-17T02:37:41;98514.84;;;20.10;100.00
64080;BME280;51042;49.696;10.808;2023-08-17T02:40:07;98516.53;;;20.02;100.00
64080;BME280;51042;49.696;10.808;2023-08-17T02:42:32;98511.72;;;19.97;100.00
64080;BME280;51042;49.696;10.808;2023-08-17T02:44:57;98506.63;;;19.90;100.00
64080;BME280;51042;49.696;10.808;2023-08-17T02:47:22;98515.19;;;19.86;100.00
64080;BME280;51042;49.696;10.808;2023-08-17T02:49:48;98517.94;;;19.81;100.00
64080;BME280;51042;49.696;10.808;2023-08-17T02:52:14;98505.97;;;19.75;100.00
64080;BME280;51042;49.696;10.808;2023-08-17T02:54:39;98507.47;;;19.70;100.00
64080;BME280;51042;49.696;10.808;2023-08-17T02:57:04;98505.66;;;19.67;100.00
64080;BME280;51042;49.696;10.808;2023-08-17T02:59:30;98503.09;;;19.64;100.00
64080;BME280;51042;49.696;10.808;2023-08-17T03:01:55;98514.47;;;19.60;100.00
64080;BME280;51042;49.696;10.808;2023-08-17T03:04:21;98515.97;;;19.61;100.00
64080;BME280;51042;49.696;10.808;2023-08-17T03:06:46;98515.72;;;19.59;100.00
64080;BME280;51042;49.696;10.808;2023-08-17T03:09:11;98515.50;;;19.63;100.00
64080;BME280;51042;49.696;10.808;2023-08-17T03:11:36;98516.25;;;19.63;100.00
64080;BME280;51042;49.696;10.808;2023-08-17T03:14:01;98501.56;;;19.63;100.00
64080;BME280;51042;49.696;10.808;2023-08-17T03:16:26;98505.09;;;19.58;100.00
64080;BME280;51042;49.696;10.808;2023-08-17T03:18:52;98503.50;;;19.51;100.00
64080;BME280;51042;49.696;10.808;2023-08-17T03:21:18;98497.41;;;19.47;100.00
64080;BME280;51042;49.696;10.808;2023-08-17T03:23:44;98499.59;;;19.43;100.00
64080;BME280;51042;49.696;10.808;2023-08-17T03:26:09;98505.16;;;19.43;100.00
64080;BME280;51042;49.696;10.808;2023-08-17T03:28:34;98507.47;;;19.44;100.00
64080;BME280;51042;49.696;10.808;2023-08-17T03:31:00;98506.25;;;19.45;100.00
64080;BME280;51042;49.696;10.808;2023-08-17T03:33:25;98512.56;;;19.46;100.00
64080;BME280;51042;49.696;10.808;2023-08-17T03:35:50;98504.22;;;19.46;100.00
64080;BME280;51042;49.696;10.808;2023-08-17T03:38:15;98510.81;;;19.48;100.00
64080;BME280;51042;49.696;10.808;2023-08-17T03:40:40;98508.78;;;19.49;100.00
64080;BME280;51042;49.696;10.808;2023-08-17T03:43:06;98514.88;;;19.47;100.00
64080;BME280;51042;49.696;10.808;2023-08-17T03:45:31;98523.91;;;19.42;100.00
64080;BME280;51042;49.696;10.808;2023-08-17T03:47:56;98520.84;;;19.40;100.00
64080;BME280;51042;49.696;10.808;2023-08-17T03:50:21;98523.81;;;19.37;100.00
64080;BME280;51042;49.696;10.808;2023-08-17T03:52:46;98523.28;;;19.33;100.00
64080;BME280;51042;49.696;10.808;2023-08-17T03:55:12;98526.78;;;19.28;100.00
64080;BME280;51042;49.696;10.808;2023-08-17T03:57:37;98531.59;;;19.27;100.00
64080;BME280;51042;49.696;10.808;2023-08-17T04:00:02;98533.66;;;19.32;100.00
64080;BME280;51042;49.696;10.808;2023-08-17T04:02:28;98528.09;;;19.32;100.00
64080;BME280;51042;49.696;10.808;2023-08-17T04:04:53;98527.31;;;19.32;100.00
64080;BME280;51042;49.696;10.808;2023-08-17T04:07:21;98532.19;;;19.37;100.00
64080;BME280;51042;49.696;10.808;2023-08-17T04:09:47;98542.56;;;19.36;100.00
64080;BME280;51042;49.696;10.808;2023-08-17T04:12:12;98538.78;;;19.39;100.00
64080;BME280;51042;49.696;10.808;2023-08-17T04:14:37;98535.72;;;19.37;100.00
64080;BME280;51042;49.696;10.808;2023-08-17T04:17:02;98534.72;;;19.35;100.00
64080;BME280;51042;49.696;10.808;2023-08-17T04:19:28;98539.50;;;19.34;100.00
64080;BME280;51042;49.696;10.808;2023-08-17T04:21:53;98533.66;;;19.32;100.00
64080;BME280;51042;49.696;10.808;2023-08-17T04:24:18;98542.50;;;19.31;100.00
64080;BME280;51042;49.696;10.808;2023-08-17T04:26:43;98545.50;;;19.27;100.00
64080;BME280;51042;49.696;10.808;2023-08-17T04:29:08;98532.34;;;19.28;100.00
64080;BME280;51042;49.696;10.808;2023-08-17T04:31:33;98536.94;;;19.31;100.00
64080;BME280;51042;49.696;10.808;2023-08-17T04:33:58;98535.13;;;19.28;100.00
64080;BME280;51042;49.696;10.808;2023-08-17T04:36:24;98535.13;;;19.28;100.00
64080;BME280;51042;49.696;10.808;2023-08-17T04:38:49;98537.16;;;19.27;100.00
64080;BME280;51042;49.696;10.808;2023-08-17T04:41:14;98543.00;;;19.29;100.00
64080;BME280;51042;49.696;10.808;2023-08-17T04:43:39;98531.88;;;19.29;100.00
64080;BME280;51042;49.696;10.808;2023-08-17T04:46:05;98533.94;;;19.34;100.00
64080;BME280;51042;49.696;10.808;2023-08-17T04:48:30;98538.03;;;19.39;100.00
64080;BME280;51042;49.696;10.808;2023-08-17T04:50:55;98548.75;;;19.46;100.00
64080;BME280;51042;49.696;10.808;2023-08-17T04:53:20;98547.06;;;19.54;100.00
64080;BME280;51042;49.696;10.808;2023-08-17T04:55:46;98546.00;;;20.14;100.00
64080;BME280;51042;49.696;10.808;2023-08-17T04:58:11;98545.09;;;21.25;100.00
64080;BME280;51042;49.696;10.808;2023-08-17T05:00:37;98541.03;;;22.43;100.00
64080;BME280;51042;49.696;10.808;2023-08-17T05:03:02;98537.03;;;23.42;100.00
64080;BME280;51042;49.696;10.808;2023-08-17T05:05:28;98543.97;;;23.77;100.00
64080;BME280;51042;49.696;10.808;2023-08-17T05:07:53;98541.22;;;23.71;100.00
64080;BME280;51042;49.696;10.808;2023-08-17T05:10:18;98543.56;;;24.27;99.73
64080;BME280;51042;49.696;10.808;2023-08-17T05:12:43;98536.75;;;25.27;92.13
64080;BME280;51042;49.696;10.808;2023-08-17T05:15:09;98541.91;;;26.24;83.24
64080;BME280;51042;49.696;10.808;2023-08-17T05:17:34;98531.94;;;27.15;79.35
64080;BME280;51042;49.696;10.808;2023-08-17T05:19:59;98533.97;;;27.83;74.93
64080;BME280;51042;49.696;10.808;2023-08-17T05:22:24;98545.09;;;28.51;71.78
64080;BME280;51042;49.696;10.808;2023-08-17T05:24:49;98550.69;;;29.00;68.18
64080;BME280;51042;49.696;10.808;2023-08-17T05:27:15;98548.50;;;28.85;67.91
64080;BME280;51042;49.696;10.808;2023-08-17T05:29:40;98541.13;;;29.18;67.52
64080;BME280;51042;49.696;10.808;2023-08-17T05:32:05;98551.28;;;29.57;65.81
64080;BME280;51042;49.696;10.808;2023-08-17T05:34:30;98544.38;;;30.19;63.59
64080;BME280;51042;49.696;10.808;2023-08-17T05:36:56;98546.81;;;30.60;62.40
64080;BME280;51042;49.696;10.808;2023-08-17T05:39:21;98541.59;;;31.12;60.67
64080;BME280;51042;49.696;10.808;2023-08-17T05:41:46;98557.22;;;31.28;59.60
64080;BME280;51042;49.696;10.808;2023-08-17T05:44:11;98550.25;;;31.54;58.96
64080;BME280;51042;49.696;10.808;2023-08-17T05:46:37;98541.16;;;31.63;57.47
64080;BME280;51042;49.696;10.808;2023-08-17T05:49:04;98545.59;;;30.94;60.15
64080;BME280;51042;49.696;10.808;2023-08-17T05:51:29;98544.34;;;30.79;59.72
64080;BME280;51042;49.696;10.808;2023-08-17T05:53:54;98550.75;;;30.80;59.48
64080;BME280;51042;49.696;10.808;2023-08-17T05:56:20;98539.47;;;30.19;60.54
64080;BME280;51042;49.696;10.808;2023-08-17T05:58:45;98547.97;;;29.96;61.52
64080;BME280;51042;49.696;10.808;2023-08-17T06:01:10;98545.38;;;29.40;62.54
64080;BME280;51042;49.696;10.808;2023-08-17T06:03:36;98549.69;;;28.90;65.24
64080;BME280;51042;49.696;10.808;2023-08-17T06:06:02;98554.47;;;28.74;65.15
64080;BME280;51042;49.696;10.808;2023-08-17T06:08:27;98552.94;;;28.45;66.21
64080;BME280;51042;49.696;10.808;2023-08-17T06:10:52;98545.00;;;27.94;68.63
64080;BME280;51042;49.696;10.808;2023-08-17T06:13:17;98547.75;;;27.86;68.32
64080;BME280;51042;49.696;10.808;2023-08-17T06:15:43;98542.59;;;27.43;71.61
64080;BME280;51042;49.696;10.808;2023-08-17T06:18:08;98543.00;;;27.47;72.33
64080;BME280;51042;49.696;10.808;2023-08-17T06:20:33;98546.84;;;26.18;76.13
64080;BME280;51042;49.696;10.808;2023-08-17T06:22:58;98545.91;;;24.47;87.28
64080;BME280;51042;49.696;10.808;2023-08-17T06:25:23;98546.59;;;23.69;95.04
64080;BME280;51042;49.696;10.808;2023-08-17T06:27:49;98546.50;;;23.39;99.38
64080;BME280;51042;49.696;10.808;2023-08-17T06:30:14;98554.06;;;23.09;100.00
64080;BME280;51042;49.696;10.808;2023-08-17T06:32:40;98549.88;;;22.74;100.00
64080;BME280;51042;49.696;10.808;2023-08-17T06:35:05;98549.63;;;22.72;100.00
64080;BME280;51042;49.696;10.808;2023-08-17T06:37:31;98540.47;;;22.72;100.00
64080;BME280;51042;49.696;10.808;2023-08-17T06:39:56;98543.19;;;22.89;100.00
64080;BME280;51042;49.696;10.808;2023-08-17T06:42:21;98551.09;;;22.90;100.00
64080;BME280;51042;49.696;10.808;2023-08-17T06:44:46;98552.09;;;22.93;100.00
64080;BME280;51042;49.696;10.808;2023-08-17T06:47:11;98554.34;;;22.94;100.00
64080;BME280;51042;49.696;10.808;2023-08-17T06:49:37;98544.63;;;23.06;100.00
64080;BME280;51042;49.696;10.808;2023-08-17T06:52:02;98551.13;;;23.31;100.00
64080;BME280;51042;49.696;10.808;2023-08-17T06:54:27;98551.53;;;23.52;100.00
64080;BME280;51042;49.696;10.808;2023-08-17T06:56:52;98556.22;;;23.74;100.00
64080;BME280;51042;49.696;10.808;2023-08-17T06:59:17;98552.66;;;23.73;100.00
64080;BME280;51042;49.696;10.808;2023-08-17T07:01:42;98559.66;;;23.55;100.00
64080;BME280;51042;49.696;10.808;2023-08-17T07:04:08;98554.34;;;23.52;100.00
64080;BME280;51042;49.696;10.808;2023-08-17T07:06:33;98554.31;;;23.57;100.00
64080;BME280;51042;49.696;10.808;2023-08-17T07:08:58;98557.47;;;23.78;100.00
64080;BME280;51042;49.696;10.808;2023-08-17T07:11:24;98562.69;;;23.93;100.00
64080;BME280;51042;49.696;10.808;2023-08-17T07:13:49;98563.88;;;23.73;100.00
64080;BME280;51042;49.696;10.808;2023-08-17T07:16:14;98561.91;;;23.63;100.00
64080;BME280;51042;49.696;10.808;2023-08-17T07:18:39;98555.47;;;23.73;100.00
64080;BME280;51042;49.696;10.808;2023-08-17T07:21:05;98564.03;;;23.86;100.00
64080;BME280;51042;49.696;10.808;2023-08-17T07:23:30;98564.94;;;24.00;100.00
64080;BME280;51042;49.696;10.808;2023-08-17T07:25:55;98568.28;;;24.53;100.00
64080;BME280;51042;49.696;10.808;2023-08-17T07:28:21;98565.53;;;24.71;97.24
64080;BME280;51042;49.696;10.808;2023-08-17T07:30:46;98555.66;;;24.65;98.11
64080;BME280;51042;49.696;10.808;2023-08-17T07:33:11;98563.63;;;24.61;97.83
64080;BME280;51042;49.696;10.808;2023-08-17T07:35:36;98559.28;;;24.60;96.94
64080;BME280;51042;49.696;10.808;2023-08-17T07:38:01;98559.16;;;24.71;97.07
64080;BME280;51042;49.696;10.808;2023-08-17T07:40:26;98561.00;;;25.11;94.37
64080;BME280;51042;49.696;10.808;2023-08-17T07:42:52;98561.44;;;25.53;93.51
64080;BME280;51042;49.696;10.808;2023-08-17T07:45:17;98558.28;;;25.62;89.37
64080;BME280;51042;49.696;10.808;2023-08-17T07:47:42;98558.41;;;25.70;90.00
64080;BME280;51042;49.696;10.808;2023-08-17T07:50:08;98564.16;;;25.77;90.65
64080;BME280;51042;49.696;10.808;2023-08-17T07:52:33;98559.66;;;25.87;90.31
64080;BME280;51042;49.696;10.808;2023-08-17T07:54:58;98557.69;;;25.82;87.26
64080;BME280;51042;49.696;10.808;2023-08-17T07:57:24;98566.13;;;25.82;86.78
64080;BME280;51042;49.696;10.808;2023-08-17T07:59:49;98568.84;;;26.20;84.18
64080;BME280;51042;49.696;10.808;2023-08-17T08:02:14;98562.13;;;25.59;86.43
64080;BME280;51042;49.696;10.808;2023-08-17T08:04:39;98562.63;;;26.08;87.31
64080;BME280;51042;49.696;10.808;2023-08-17T08:07:05;98555.81;;;26.04;84.64
64080;BME280;51042;49.696;10.808;2023-08-17T08:09:31;98548.09;;;26.36;87.89
64080;BME280;51042;49.696;10.808;2023-08-17T08:11:56;98555.06;;;26.61;83.22
64080;BME280;51042;49.696;10.808;2023-08-17T08:14:21;98551.22;;;25.87;85.98
64080;BME280;51042;49.696;10.808;2023-08-17T08:16:46;98563.78;;;25.99;86.35
64080;BME280;51042;49.696;10.808;2023-08-17T08:19:12;98555.34;;;26.31;84.45
64080;BME280;51042;49.696;10.808;2023-08-17T08:21:37;98558.72;;;26.56;82.24
64080;BME280;51042;49.696;10.808;2023-08-17T08:24:02;98559.16;;;26.73;81.21
64080;BME280;51042;49.696;10.808;2023-08-17T08:26:28;98559.84;;;26.21;83.83
64080;BME280;51042;49.696;10.808;2023-08-17T08:28:53;98551.59;;;26.68;83.88
64080;BME280;51042;49.696;10.808;2023-08-17T08:31:18;98548.84;;;26.36;81.87
64080;BME280;51042;49.696;10.808;2023-08-17T08:33:43;98549.63;;;26.50;84.02
64080;BME280;51042;49.696;10.808;2023-08-17T08:36:08;98550.59;;;27.05;82.13
64080;BME280;51042;49.696;10.808;2023-08-17T08:38:34;98553.44;;;27.52;79.37
64080;BME280;51042;49.696;10.808;2023-08-17T08:40:59;98539.00;;;27.77;78.37
64080;BME280;51042;49.696;10.808;2023-08-17T08:43:24;98539.38;;;27.94;76.04
64080;BME280;51042;49.696;10.808;2023-08-17T08:45:50;98541.63;;;27.41;77.19
64080;BME280;51042;49.696;10.808;2023-08-17T08:48:16;98543.81;;;27.35;77.60
64080;BME280;51042;49.696;10.808;2023-08-17T08:50:43;98542.56;;;27.23;78.31
64080;BME280;51042;49.696;10.808;2023-08-17T08:53:15;98546.06;;;27.02;79.13
64080;BME280;51042;49.696;10.808;2023-08-17T08:55:50;98544.88;;;26.98;80.56
64080;BME280;51042;49.696;10.808;2023-08-17T08:58:19;98547.28;;;27.41;79.68
64080;BME280;51042;49.696;10.808;2023-08-17T09:00:46;98549.56;;;27.29;76.58
64080;BME280;51042;49.696;10.808;2023-08-17T09:03:12;98539.38;;;27.26;79.02
64080;BME280;51042;49.696;10.808;2023-08-17T09:05:38;98540.72;;;28.00;76.59
64080;BME280;51042;49.696;10.808;2023-08-17T09:08:04;98548.13;;;28.24;73.37
64080;BME280;51042;49.696;10.808;2023-08-17T09:10:31;98545.69;;;28.28;72.23
64080;BME280;51042;49.696;10.808;2023-08-17T09:12:56;98538.66;;;27.59;75.90
64080;BME280;51042;49.696;10.808;2023-08-17T09:15:21;98535.84;;;27.80;78.05
64080;BME280;51042;49.696;10.808;2023-08-17T09:17:46;98531.56;;;28.57;72.11
64080;BME280;51042;49.696;10.808;2023-08-17T09:20:33;98531.53;;;28.77;71.34
64080;BME280;51042;49.696;10.808;2023-08-17T09:22:59;98530.31;;;28.94;71.27
64080;BME280;51042;49.696;10.808;2023-08-17T09:25:27;98530.13;;;28.99;71.46
64080;BME280;51042;49.696;10.808;2023-08-17T09:27:53;98531.97;;;29.33;70.98
64080;BME280;51042;49.696;10.808;2023-08-17T09:30:18;98524.34;;;29.71;68.17
64080;BME280;51042;49.696;10.808;2023-08-17T09:32:43;98534.22;;;28.91;68.97
64080;BME280;51042;49.696;10.808;2023-08-17T09:35:08;98528.38;;;28.60;71.01
64080;BME280;51042;49.696;10.808;2023-08-17T09:37:34;98525.25;;;28.15;73.44
64080;BME280;51042;49.696;10.808;2023-08-17T09:39:59;98524.00;;;28.52;72.66
64080;BME280;51042;49.696;10.808;2023-08-17T09:42:25;98518.75;;;28.84;70.37
64080;BME280;51042;49.696;10.808;2023-08-17T09:44:52;98523.50;;;29.40;69.94
64080;BME280;51042;49.696;10.808;2023-08-17T09:47:17;98518.78;;;29.35;69.21
64080;BME280;51042;49.696;10.808;2023-08-17T09:49:53;98518.50;;;29.77;67.50
64080;BME280;51042;49.696;10.808;2023-08-17T09:52:21;98522.31;;;30.32;65.84
64080;BME280;51042;49.696;10.808;2023-08-17T09:54:47;98511.09;;;30.65;64.26
64080;BME280;51042;49.696;10.808;2023-08-17T09:57:13;98520.69;;;30.85;63.32
64080;BME280;51042;49.696;10.808;2023-08-17T09:59:38;98517.47;;;30.88;62.39
64080;BME280;51042;49.696;10.808;2023-08-17T10:02:03;98519.09;;;30.99;62.84
64080;BME280;51042;49.696;10.808;2023-08-17T10:04:32;98517.34;;;31.26;61.20
64080;BME280;51042;49.696;10.808;2023-08-17T10:06:59;98513.75;;;31.18;59.61
64080;BME280;51042;49.696;10.808;2023-08-17T10:09:25;98517.53;;;31.28;62.02
64080;BME280;51042;49.696;10.808;2023-08-17T10:11:54;98512.69;;;31.46;59.82
64080;BME280;51042;49.696;10.808;2023-08-17T10:14:22;98504.53;;;31.50;58.50
64080;BME280;51042;49.696;10.808;2023-08-17T10:16:54;98499.34;;;30.83;59.69
64080;BME280;51042;49.696;10.808;2023-08-17T10:19:41;98510.03;;;30.30;61.96
64080;BME280;51042;49.696;10.808;2023-08-17T10:22:12;98497.72;;;30.35;62.80
64080;BME280;51042;49.696;10.808;2023-08-17T10:24:41;98500.75;;;30.52;63.21
64080;BME280;51042;49.696;10.808;2023-08-17T10:27:07;98495.47;;;31.11;61.94
64080;BME280;51042;49.696;10.808;2023-08-17T10:29:34;98496.28;;;31.37;58.73
64080;BME280;51042;49.696;10.808;2023-08-17T10:32:01;98497.72;;;30.42;60.37
64080;BME280;51042;49.696;10.808;2023-08-17T10:34:26;98496.59;;;30.53;60.33
64080;BME280;51042;49.696;10.808;2023-08-17T10:36:52;98493.78;;;31.01;59.40
64080;BME280;51042;49.696;10.808;2023-08-17T10:39:21;98486.63;;;31.40;57.70
64080;BME280;51042;49.696;10.808;2023-08-17T10:41:47;98485.75;;;31.54;57.81
64080;BME280;51042;49.696;10.808;2023-08-17T10:44:16;98489.09;;;31.93;58.77
64080;BME280;51042;49.696;10.808;2023-08-17T10:46:42;98488.88;;;32.23;56.33
64080;BME280;51042;49.696;10.808;2023-08-17T10:49:24;98488.19;;;32.32;56.00
64080;BME280;51042;49.696;10.808;2023-08-17T10:52:02;98483.28;;;32.08;55.79
64080;BME280;51042;49.696;10.808;2023-08-17T10:54:35;98488.50;;;32.19;56.61
64080;BME280;51042;49.696;10.808;2023-08-17T10:57:17;98475.44;;;32.58;56.76
64080;BME280;51042;49.696;10.808;2023-08-17T10:59:46;98482.13;;;32.88;53.79
64080;BME280;51042;49.696;10.808;2023-08-17T11:02:11;98473.00;;;31.38;57.43
64080;BME280;51042;49.696;10.808;2023-08-17T11:04:36;98481.25;;;32.01;55.85
64080;BME280;51042;49.696;10.808;2023-08-17T11:07:01;98486.44;;;32.54;54.66
64080;BME280;51042;49.696;10.808;2023-08-17T11:09:27;98479.91;;;32.96;53.42
64080;BME280;51042;49.696;10.808;2023-08-17T11:11:53;98483.38;;;32.94;52.50
64080;BME280;51042;49.696;10.808;2023-08-17T11:14:19;98472.84;;;32.70;52.92
64080;BME280;51042;49.696;10.808;2023-08-17T11:16:46;98476.50;;;32.63;53.61
64080;BME280;51042;49.696;10.808;2023-08-17T11:19:11;98476.44;;;32.70;52.79
64080;BME280;51042;49.696;10.808;2023-08-17T11:21:36;98473.91;;;31.98;56.21
64080;BME280;51042;49.696;10.808;2023-08-17T11:24:01;98476.25;;;31.67;53.93
64080;BME280;51042;49.696;10.808;2023-08-17T11:26:27;98475.72;;;31.53;54.78
64080;BME280;51042;49.696;10.808;2023-08-17T11:28:52;98479.03;;;31.99;55.90
64080;BME280;51042;49.696;10.808;2023-08-17T11:31:18;98472.16;;;32.27;53.85
64080;BME280;51042;49.696;10.808;2023-08-17T11:33:43;98475.69;;;31.29;55.66
64080;BME280;51042;49.696;10.808;2023-08-17T11:36:08;98471.66;;;31.07;59.06
64080;BME280;51042;49.696;10.808;2023-08-17T11:38:35;98465.34;;;31.23;56.20
64080;BME280;51042;49.696;10.808;2023-08-17T11:41:01;98459.56;;;30.99;55.79
64080;BME280;51042;49.696;10.808;2023-08-17T11:43:27;98461.63;;;30.58;57.94
64080;BME280;51042;49.696;10.808;2023-08-17T11:45:54;98458.38;;;30.69;57.63
64080;BME280;51042;49.696;10.808;2023-08-17T11:48:19;98457.28;;;31.12;56.81
64080;BME280;51042;49.696;10.808;2023-08-17T11:50:44;98455.03;;;31.68;56.80
64080;BME280;51042;49.696;10.808;2023-08-17T11:53:10;98443.38;;;31.56;55.06
64080;BME280;51042;49.696;10.808;2023-08-17T11:55:35;98445.47;;;31.56;57.13
64080;BME280;51042;49.696;10.808;2023-08-17T11:58:01;98449.03;;;32.06;55.04
64080;BME280;51042;49.696;10.808;2023-08-17T12:00:26;98458.03;;;32.71;53.15
64080;BME280;51042;49.696;10.808;2023-08-17T12:02:52;98446.59;;;33.23;51.46
64080;BME280;51042;49.696;10.808;2023-08-17T12:05:24;98455.63;;;33.66;50.39
64080;BME280;51042;49.696;10.808;2023-08-17T12:07:50;98452.03;;;34.11;50.65
64080;BME280;51042;49.696;10.808;2023-08-17T12:10:17;98448.66;;;34.41;49.48
64080;BME280;51042;49.696;10.808;2023-08-17T12:12:42;98434.47;;;34.15;49.12
64080;BME280;51042;49.696;10.808;2023-08-17T12:15:09;98440.66;;;33.38;50.99
64080;BME280;51042;49.696;10.808;2023-08-17T12:17:34;98444.50;;;32.45;50.34
64080;BME280;51042;49.696;10.808;2023-08-17T12:19:59;98437.13;;;32.25;54.32
64080;BME280;51042;49.696;10.808;2023-08-17T12:22:25;98431.66;;;33.05;50.68
64080;BME280;51042;49.696;10.808;2023-08-17T12:24:53;98436.66;;;33.41;50.32
64080;BME280;51042;49.696;10.808;2023-08-17T12:27:18;98428.78;;;33.59;51.04
64080;BME280;51042;49.696;10.808;2023-08-17T12:29:47;98426.53;;;33.57;50.36
64080;BME280;51042;49.696;10.808;2023-08-17T12:32:13;98420.34;;;33.42;48.51
64080;BME280;51042;49.696;10.808;2023-08-17T12:34:39;98412.75;;;32.22;51.58
64080;BME280;51042;49.696;10.808;2023-08-17T12:37:04;98417.97;;;32.60;48.50
64080;BME280;51042;49.696;10.808;2023-08-17T12:39:29;98413.13;;;33.14;48.19
64080;BME280;51042;49.696;10.808;2023-08-17T12:41:54;98417.91;;;33.11;49.86
64080;BME280;51042;49.696;10.808;2023-08-17T12:44:19;98408.13;;;33.68;48.91